createdAt,value
2018-03-27T00:09:15.542Z,95.48
2018-03-27T00:19:13.642Z,95.48
2018-03-27T00:29:09.924Z,94.85
2018-03-27T00:39:07.873Z,94.13
2018-03-27T00:49:05.711Z,94.03
2018-03-27T00:59:02.809Z,93.62
2018-03-27T01:08:59.743Z,95.00
2018-03-27T01:18:57.672Z,94.96
2018-03-27T01:28:55.601Z,94.44
2018-03-27T01:38:49.845Z,94.79
2018-03-27T01:48:47.557Z,94.23
2018-03-27T01:58:43.635Z,94.79
2018-03-27T02:08:41.989Z,95.10
2018-03-27T02:18:39.574Z,95.10
2018-03-27T02:28:37.805Z,94.79
2018-03-27T02:38:35.533Z,95.04
2018-03-27T02:48:32.649Z,95.67
2018-03-27T02:58:29.024Z,94.90
2018-03-27T03:08:24.888Z,96.75
2018-03-27T03:18:22.037Z,97.47
2018-03-27T03:28:19.211Z,96.95
2018-03-27T03:38:16.385Z,96.95
2018-03-27T03:48:13.550Z,97.36
2018-03-27T03:58:11.468Z,97.16
2018-03-27T04:08:08.080Z,98.03
2018-03-27T04:18:06.238Z,98.13
2018-03-27T04:28:01.385Z,97.83
2018-03-27T04:37:58.769Z,97.77
2018-03-27T04:47:56.284Z,97.31
2018-03-27T04:57:52.410Z,97.20
2018-03-27T05:07:49.994Z,97.26
2018-03-27T05:17:47.032Z,97.36
2018-03-27T05:27:41.604Z,96.95
2018-03-27T05:37:36.898Z,96.80
2018-03-27T05:47:32.334Z,96.24
2018-03-27T05:57:21.362Z,93.98
2018-03-27T06:07:18.957Z,94.00
2018-03-27T06:17:16.581Z,90.97
2018-03-27T06:27:09.669Z,89.23
2018-03-27T06:37:04.128Z,89.13
2018-03-27T06:47:01.957Z,89.13
2018-03-27T06:56:56.240Z,87.69
2018-03-27T07:06:54.164Z,88.41
2018-03-27T07:16:47.603Z,88.06
2018-03-27T07:26:44.106Z,87.81
2018-03-27T07:36:38.357Z,86.06
2018-03-27T07:46:35.852Z,85.78
2018-03-27T07:56:28.837Z,84.44
2018-03-27T08:06:22.789Z,84.26
2018-03-27T08:16:21.744Z,80.79
2018-03-27T08:26:19.536Z,80.55
2018-03-27T08:36:18.253Z,80.14
2018-03-27T08:46:14.478Z,78.56
2018-03-27T08:56:11.508Z,77.40
2018-03-27T09:06:05.349Z,75.21
2018-03-27T09:16:03.183Z,73.85
2018-03-27T09:25:58.808Z,71.80
2018-03-27T09:35:57.354Z,70.67
2018-03-27T09:45:54.850Z,72.21
2018-03-27T09:55:51.736Z,71.29
2018-03-27T10:05:49.570Z,68.63
2018-03-27T10:15:46.921Z,65.40
2018-03-27T10:25:24.190Z,69.77
2018-03-27T10:34:59.693Z,67.28
2018-03-27T10:44:40.253Z,66.93
2018-03-27T10:54:09.264Z,64.65
2018-03-27T11:03:47.745Z,64.70
2018-03-27T11:13:26.136Z,59.28
2018-03-27T11:23:01.497Z,56.98
2018-03-27T11:32:39.149Z,54.16
2018-03-27T11:42:15.342Z,55.30
2018-03-27T11:51:57.048Z,53.03
2018-03-27T12:01:27.932Z,56.20
2018-03-27T12:11:00.147Z,55.20
2018-03-27T12:20:33.091Z,56.96
2018-03-27T12:30:03.915Z,59.36
2018-03-27T12:39:39.663Z,52.78
2018-03-27T12:49:10.437Z,53.01
2018-03-27T12:58:38.726Z,51.56
2018-03-27T13:08:19.966Z,46.95
2018-03-27T13:17:56.504Z,43.10
2018-03-27T13:27:28.568Z,46.92
2018-03-27T13:37:06.747Z,48.85
2018-03-27T13:46:38.781Z,44.63
2018-03-27T13:56:20.390Z,47.30
2018-03-27T14:06:01.892Z,42.74
2018-03-27T14:15:29.421Z,46.38
2018-03-27T14:24:53.488Z,53.26
2018-03-27T14:34:27.833Z,63.76
2018-03-27T14:44:07.924Z,67.14
2018-03-27T14:53:50.402Z,61.71
2018-03-27T15:03:24.122Z,56.24
2018-03-27T15:12:53.021Z,63.31
2018-03-27T15:22:17.381Z,61.66
2018-03-27T15:31:56.654Z,62.51
2018-03-27T15:41:26.509Z,69.49
2018-03-27T15:51:11.448Z,74.39
2018-03-27T16:01:07.282Z,72.00
2018-03-27T16:11:04.598Z,71.66
2018-03-27T16:20:55.284Z,73.20
2018-03-27T16:30:47.157Z,75.07
2018-03-27T16:40:43.296Z,76.03
2018-03-27T16:50:39.326Z,78.05
2018-03-27T17:00:33.819Z,80.27
2018-03-27T17:10:29.289Z,80.72
2018-03-27T17:20:24.876Z,80.24
2018-03-27T17:30:20.424Z,83.05
2018-03-27T17:40:15.835Z,86.62
2018-03-27T17:50:08.258Z,89.13
2018-03-27T18:00:01.649Z,91.78
2018-03-27T18:09:57.804Z,91.99
2018-03-27T18:19:53.967Z,92.18
2018-03-27T18:29:48.875Z,92.80
2018-03-27T18:39:44.417Z,93.15
2018-03-27T18:49:39.055Z,91.71
2018-03-27T18:59:32.204Z,91.64
2018-03-27T19:09:25.728Z,91.34
2018-03-27T19:19:21.388Z,91.60
2018-03-27T19:29:17.150Z,91.05
2018-03-27T19:39:13.397Z,90.39
2018-03-27T19:49:06.859Z,92.55
2018-03-27T19:59:02.136Z,93.98
2018-03-27T20:08:54.845Z,91.19
2018-03-27T20:18:50.785Z,90.33
2018-03-27T20:28:44.730Z,91.15
2018-03-27T20:38:40.169Z,92.74
2018-03-27T20:48:35.724Z,93.35
2018-03-27T20:58:33.403Z,94.47
2018-03-27T21:08:25.336Z,95.43
2018-03-27T21:18:17.999Z,95.95
2018-03-27T21:28:11.579Z,97.13
2018-03-27T21:38:08.935Z,96.47
2018-03-27T21:48:06.754Z,97.53
2018-03-27T21:58:02.477Z,99.43
2018-03-27T22:07:59.712Z,99.99
2018-03-27T22:17:57.042Z,99.99
2018-03-27T22:27:53.650Z,99.99
2018-03-27T22:37:50.625Z,99.99
2018-03-27T22:47:48.575Z,99.99
2018-03-27T22:57:46.050Z,99.99
2018-03-27T23:07:43.667Z,99.99
2018-03-27T23:17:37.367Z,99.99
2018-03-27T23:27:33.706Z,99.99
2018-03-27T23:37:20.818Z,99.99
2018-03-27T23:47:18.364Z,99.99
2018-03-27T23:57:15.100Z,99.99
